sensor_id;sensor_type;location;lat;lon;timestamp;P1;durP1;ratioP1;P2;durP2;ratioP2
17091;SDS011;8661;45.700;4.880;2023-08-21T00:01:32;7.77;;;5.83;;
17091;SDS011;8661;45.700;4.880;2023-08-21T00:03:59;6.90;;;5.70;;
17091;SDS011;8661;45.700;4.880;2023-08-21T00:06:25;8.77;;;5.20;;
17091;SDS011;8661;45.700;4.880;2023-08-21T00:08:52;7.17;;;6.00;;
17091;SDS011;8661;45.700;4.880;2023-08-21T00:11:20;8.37;;;5.57;;
17091;SDS011;8661;45.700;4.880;2023-08-21T00:13:47;7.80;;;5.13;;
17091;SDS011;8661;45.700;4.880;2023-08-21T00:16:14;9.33;;;5.40;;
17091;SDS011;8661;45.700;4.880;2023-08-21T00:18:42;9.43;;;5.97;;
17091;SDS011;8661;45.700;4.880;2023-08-21T00:21:09;7.50;;;5.53;;
17091;SDS011;8661;45.700;4.880;2023-08-21T00:23:36;11.80;;;5.50;;
17091;SDS011;8661;45.700;4.880;2023-08-21T00:26:03;5.63;;;5.13;;
17091;SDS011;8661;45.700;4.880;2023-08-21T00:28:31;12.33;;;5.80;;
17091;SDS011;8661;45.700;4.880;2023-08-21T00:31:00;6.03;;;5.30;;
17091;SDS011;8661;45.700;4.880;2023-08-21T00:33:27;7.83;;;5.53;;
17091;SDS011;8661;45.700;4.880;2023-08-21T00:35:54;8.17;;;5.63;;
17091;SDS011;8661;45.700;4.880;2023-08-21T00:38:21;12.93;;;6.03;;
17091;SDS011;8661;45.700;4.880;2023-08-21T00:40:48;6.63;;;5.60;;
17091;SDS011;8661;45.700;4.880;2023-08-21T00:43:15;5.97;;;5.20;;
17091;SDS011;8661;45.700;4.880;2023-08-21T00:45:44;6.10;;;5.50;;
17091;SDS011;8661;45.700;4.880;2023-08-21T00:48:13;8.73;;;6.20;;
17091;SDS011;8661;45.700;4.880;2023-08-21T00:50:40;10.93;;;6.03;;
17091;SDS011;8661;45.700;4.880;2023-08-21T00:53:08;9.07;;;6.03;;
17091;SDS011;8661;45.700;4.880;2023-08-21T00:55:35;8.33;;;6.17;;
17091;SDS011;8661;45.700;4.880;2023-08-21T00:58:02;17.60;;;6.57;;
17091;SDS011;8661;45.700;4.880;2023-08-21T01:00:30;10.47;;;6.13;;
17091;SDS011;8661;45.700;4.880;2023-08-21T01:02:58;8.77;;;5.70;;
17091;SDS011;8661;45.700;4.880;2023-08-21T01:05:25;12.97;;;6.33;;
17091;SDS011;8661;45.700;4.880;2023-08-21T01:07:53;8.63;;;5.93;;
17091;SDS011;8661;45.700;4.880;2023-08-21T01:10:27;11.13;;;5.77;;
17091;SDS011;8661;45.700;4.880;2023-08-21T01:13:06;10.93;;;5.67;;
17091;SDS011;8661;45.700;4.880;2023-08-21T01:15:40;8.73;;;5.90;;
17091;SDS011;8661;45.700;4.880;2023-08-21T01:18:10;10.07;;;5.90;;
17091;SDS011;8661;45.700;4.880;2023-08-21T01:20:37;7.70;;;5.70;;
17091;SDS011;8661;45.700;4.880;2023-08-21T01:23:05;9.47;;;5.90;;
17091;SDS011;8661;45.700;4.880;2023-08-21T01:25:33;10.57;;;6.20;;
17091;SDS011;8661;45.700;4.880;2023-08-21T01:28:00;9.77;;;6.73;;
17091;SDS011;8661;45.700;4.880;2023-08-21T01:30:28;9.13;;;6.00;;
17091;SDS011;8661;45.700;4.880;2023-08-21T01:33:00;12.47;;;6.27;;
17091;SDS011;8661;45.700;4.880;2023-08-21T01:35:31;13.73;;;6.40;;
17091;SDS011;8661;45.700;4.880;2023-08-21T01:38:02;13.70;;;6.57;;
17091;SDS011;8661;45.700;4.880;2023-08-21T01:40:30;13.53;;;6.80;;
17091;SDS011;8661;45.700;4.880;2023-08-21T01:42:58;12.77;;;5.87;;
17091;SDS011;8661;45.700;4.880;2023-08-21T01:45:25;8.17;;;6.30;;
17091;SDS011;8661;45.700;4.880;2023-08-21T01:47:52;9.87;;;6.10;;
17091;SDS011;8661;45.700;4.880;2023-08-21T01:50:19;11.87;;;5.83;;
17091;SDS011;8661;45.700;4.880;2023-08-21T01:52:46;15.50;;;6.13;;
17091;SDS011;8661;45.700;4.880;2023-08-21T01:55:13;13.40;;;6.47;;
17091;SDS011;8661;45.700;4.880;2023-08-21T01:57:40;7.83;;;6.00;;
17091;SDS011;8661;45.700;4.880;2023-08-21T02:00:09;6.80;;;5.70;;
17091;SDS011;8661;45.700;4.880;2023-08-21T02:02:37;12.77;;;6.40;;
17091;SDS011;8661;45.700;4.880;2023-08-21T02:05:05;11.00;;;5.97;;
17091;SDS011;8661;45.700;4.880;2023-08-21T02:07:32;10.33;;;6.30;;
17091;SDS011;8661;45.700;4.880;2023-08-21T02:09:59;9.83;;;6.17;;
17091;SDS011;8661;45.700;4.880;2023-08-21T02:12:26;9.30;;;6.20;;
17091;SDS011;8661;45.700;4.880;2023-08-21T02:14:53;15.50;;;6.47;;
17091;SDS011;8661;45.700;4.880;2023-08-21T02:17:21;13.77;;;6.63;;
17091;SDS011;8661;45.700;4.880;2023-08-21T02:19:48;11.37;;;6.50;;
17091;SDS011;8661;45.700;4.880;2023-08-21T02:22:15;9.20;;;6.53;;
17091;SDS011;8661;45.700;4.880;2023-08-21T02:24:42;7.73;;;5.50;;
17091;SDS011;8661;45.700;4.880;2023-08-21T02:27:09;9.10;;;5.87;;
17091;SDS011;8661;45.700;4.880;2023-08-21T02:29:35;10.27;;;6.07;;
17091;SDS011;8661;45.700;4.880;2023-08-21T02:32:02;8.83;;;5.97;;
17091;SDS011;8661;45.700;4.880;2023-08-21T02:34:31;11.80;;;6.47;;
17091;SDS011;8661;45.700;4.880;2023-08-21T02:36:58;9.67;;;6.07;;
17091;SDS011;8661;45.700;4.880;2023-08-21T02:39:25;9.57;;;6.43;;
17091;SDS011;8661;45.700;4.880;2023-08-21T02:41:51;9.70;;;6.87;;
17091;SDS011;8661;45.700;4.880;2023-08-21T02:44:18;8.73;;;6.30;;
17091;SDS011;8661;45.700;4.880;2023-08-21T02:46:45;12.03;;;6.03;;
17091;SDS011;8661;45.700;4.880;2023-08-21T02:49:12;11.10;;;7.03;;
17091;SDS011;8661;45.700;4.880;2023-08-21T02:51:40;11.40;;;7.37;;
17091;SDS011;8661;45.700;4.880;2023-08-21T02:54:07;8.93;;;6.27;;
17091;SDS011;8661;45.700;4.880;2023-08-21T02:56:34;10.57;;;6.90;;
17091;SDS011;8661;45.700;4.880;2023-08-21T02:59:01;10.20;;;8.33;;
17091;SDS011;8661;45.700;4.880;2023-08-21T03:01:28;15.07;;;10.60;;
17091;SDS011;8661;45.700;4.880;2023-08-21T03:03:54;11.07;;;9.67;;
17091;SDS011;8661;45.700;4.880;2023-08-21T03:06:21;12.27;;;8.23;;
17091;SDS011;8661;45.700;4.880;2023-08-21T03:08:49;10.77;;;8.60;;
17091;SDS011;8661;45.700;4.880;2023-08-21T03:11:16;11.00;;;7.73;;
17091;SDS011;8661;45.700;4.880;2023-08-21T03:13:43;12.93;;;7.30;;
17091;SDS011;8661;45.700;4.880;2023-08-21T03:16:10;10.00;;;6.10;;
17091;SDS011;8661;45.700;4.880;2023-08-21T03:21:22;10.47;;;7.10;;
17091;SDS011;8661;45.700;4.880;2023-08-21T03:23:51;9.17;;;6.60;;
17091;SDS011;8661;45.700;4.880;2023-08-21T03:26:21;8.67;;;7.07;;
17091;SDS011;8661;45.700;4.880;2023-08-21T03:28:48;11.57;;;7.57;;
17091;SDS011;8661;45.700;4.880;2023-08-21T03:31:15;9.37;;;6.53;;
17091;SDS011;8661;45.700;4.880;2023-08-21T03:33:42;7.93;;;6.50;;
17091;SDS011;8661;45.700;4.880;2023-08-21T03:36:09;11.23;;;6.83;;
17091;SDS011;8661;45.700;4.880;2023-08-21T03:38:36;13.10;;;7.23;;
17091;SDS011;8661;45.700;4.880;2023-08-21T03:41:04;8.83;;;6.73;;
17091;SDS011;8661;45.700;4.880;2023-08-21T03:43:31;9.47;;;7.27;;
17091;SDS011;8661;45.700;4.880;2023-08-21T03:45:58;8.03;;;6.67;;
17091;SDS011;8661;45.700;4.880;2023-08-21T03:48:25;8.07;;;6.60;;
17091;SDS011;8661;45.700;4.880;2023-08-21T03:50:52;9.53;;;7.07;;
17091;SDS011;8661;45.700;4.880;2023-08-21T03:53:18;9.30;;;7.33;;
17091;SDS011;8661;45.700;4.880;2023-08-21T03:55:45;12.73;;;6.50;;
17091;SDS011;8661;45.700;4.880;2023-08-21T03:58:14;10.43;;;6.57;;
17091;SDS011;8661;45.700;4.880;2023-08-21T04:00:41;11.50;;;6.97;;
17091;SDS011;8661;45.700;4.880;2023-08-21T04:03:08;11.73;;;6.97;;
17091;SDS011;8661;45.700;4.880;2023-08-21T04:05:34;7.63;;;6.80;;
17091;SDS011;8661;45.700;4.880;2023-08-21T04:08:01;10.07;;;7.03;;
17091;SDS011;8661;45.700;4.880;2023-08-21T04:10:28;8.17;;;6.60;;
17091;SDS011;8661;45.700;4.880;2023-08-21T04:12:55;11.23;;;7.20;;
17091;SDS011;8661;45.700;4.880;2023-08-21T04:15:24;10.70;;;7.20;;
17091;SDS011;8661;45.700;4.880;2023-08-21T04:17:51;10.90;;;6.70;;
17091;SDS011;8661;45.700;4.880;2023-08-21T04:20:19;8.93;;;6.63;;
17091;SDS011;8661;45.700;4.880;2023-08-21T04:22:46;8.80;;;6.97;;
17091;SDS011;8661;45.700;4.880;2023-08-21T04:25:13;12.30;;;6.80;;
17091;SDS011;8661;45.700;4.880;2023-08-21T04:27:40;11.90;;;7.20;;
17091;SDS011;8661;45.700;4.880;2023-08-21T04:30:08;10.27;;;6.80;;
17091;SDS011;8661;45.700;4.880;2023-08-21T04:32:37;11.87;;;6.70;;
17091;SDS011;8661;45.700;4.880;2023-08-21T04:35:04;8.67;;;6.37;;
17091;SDS011;8661;45.700;4.880;2023-08-21T04:37:33;12.30;;;6.73;;
17091;SDS011;8661;45.700;4.880;2023-08-21T04:40:00;8.20;;;6.60;;
17091;SDS011;8661;45.700;4.880;2023-08-21T04:42:27;10.03;;;6.80;;
17091;SDS011;8661;45.700;4.880;2023-08-21T04:44:54;9.60;;;6.67;;
17091;SDS011;8661;45.700;4.880;2023-08-21T04:47:21;9.93;;;6.73;;
17091;SDS011;8661;45.700;4.880;2023-08-21T04:49:50;10.77;;;6.33;;
17091;SDS011;8661;45.700;4.880;2023-08-21T04:52:18;8.07;;;6.30;;
17091;SDS011;8661;45.700;4.880;2023-08-21T04:54:45;8.83;;;6.10;;
17091;SDS011;8661;45.700;4.880;2023-08-21T04:57:12;11.27;;;6.47;;
17091;SDS011;8661;45.700;4.880;2023-08-21T04:59:39;9.93;;;6.57;;
17091;SDS011;8661;45.700;4.880;2023-08-21T05:02:06;10.17;;;6.97;;
17091;SDS011;8661;45.700;4.880;2023-08-21T05:04:36;10.17;;;6.73;;
17091;SDS011;8661;45.700;4.880;2023-08-21T05:07:05;9.00;;;5.90;;
17091;SDS011;8661;45.700;4.880;2023-08-21T05:09:32;7.17;;;5.83;;
17091;SDS011;8661;45.700;4.880;2023-08-21T05:11:59;9.07;;;6.67;;
17091;SDS011;8661;45.700;4.880;2023-08-21T05:14:26;7.87;;;6.23;;
17091;SDS011;8661;45.700;4.880;2023-08-21T05:16:53;23.47;;;7.10;;
17091;SDS011;8661;45.700;4.880;2023-08-21T05:19:20;9.97;;;6.53;;
17091;SDS011;8661;45.700;4.880;2023-08-21T05:21:47;14.03;;;6.70;;
17091;SDS011;8661;45.700;4.880;2023-08-21T05:24:17;10.43;;;6.67;;
17091;SDS011;8661;45.700;4.880;2023-08-21T05:26:44;8.30;;;6.30;;
17091;SDS011;8661;45.700;4.880;2023-08-21T05:29:11;11.67;;;6.43;;
17091;SDS011;8661;45.700;4.880;2023-08-21T05:31:38;10.60;;;7.00;;
17091;SDS011;8661;45.700;4.880;2023-08-21T05:34:08;11.23;;;6.20;;
17091;SDS011;8661;45.700;4.880;2023-08-21T05:36:35;9.80;;;6.40;;
17091;SDS011;8661;45.700;4.880;2023-08-21T05:39:02;7.93;;;5.90;;
17091;SDS011;8661;45.700;4.880;2023-08-21T05:41:32;11.60;;;6.63;;
17091;SDS011;8661;45.700;4.880;2023-08-21T05:43:59;8.67;;;6.73;;
17091;SDS011;8661;45.700;4.880;2023-08-21T05:46:26;7.40;;;5.87;;
17091;SDS011;8661;45.700;4.880;2023-08-21T05:48:53;7.17;;;5.53;;
17091;SDS011;8661;45.700;4.880;2023-08-21T05:51:20;7.93;;;5.93;;
17091;SDS011;8661;45.700;4.880;2023-08-21T05:53:47;8.90;;;6.37;;
17091;SDS011;8661;45.700;4.880;2023-08-21T05:56:14;7.03;;;5.60;;
17091;SDS011;8661;45.700;4.880;2023-08-21T05:58:42;10.93;;;5.50;;
17091;SDS011;8661;45.700;4.880;2023-08-21T06:01:09;8.80;;;6.10;;
17091;SDS011;8661;45.700;4.880;2023-08-21T06:03:35;13.67;;;6.03;;
17091;SDS011;8661;45.700;4.880;2023-08-21T06:06:02;7.20;;;5.70;;
17091;SDS011;8661;45.700;4.880;2023-08-21T06:08:30;7.30;;;5.80;;
17091;SDS011;8661;45.700;4.880;2023-08-21T06:10:57;7.20;;;6.00;;
17091;SDS011;8661;45.700;4.880;2023-08-21T06:13:24;9.13;;;5.50;;
17091;SDS011;8661;45.700;4.880;2023-08-21T06:15:53;9.93;;;5.83;;
17091;SDS011;8661;45.700;4.880;2023-08-21T06:18:20;10.93;;;5.73;;
17091;SDS011;8661;45.700;4.880;2023-08-21T06:20:47;6.03;;;5.43;;
17091;SDS011;8661;45.700;4.880;2023-08-21T06:23:18;8.77;;;5.23;;
17091;SDS011;8661;45.700;4.880;2023-08-21T06:25:47;6.40;;;5.00;;
17091;SDS011;8661;45.700;4.880;2023-08-21T06:28:14;7.37;;;5.43;;
17091;SDS011;8661;45.700;4.880;2023-08-21T06:30:41;9.03;;;5.30;;
17091;SDS011;8661;45.700;4.880;2023-08-21T06:33:09;10.00;;;5.90;;
17091;SDS011;8661;45.700;4.880;2023-08-21T06:35:36;7.90;;;5.60;;
17091;SDS011;8661;45.700;4.880;2023-08-21T06:38:03;9.30;;;5.53;;
17091;SDS011;8661;45.700;4.880;2023-08-21T06:40:31;10.37;;;7.47;;
17091;SDS011;8661;45.700;4.880;2023-08-21T06:42:58;9.63;;;5.20;;
17091;SDS011;8661;45.700;4.880;2023-08-21T06:45:25;8.30;;;5.60;;
17091;SDS011;8661;45.700;4.880;2023-08-21T06:47:55;9.40;;;5.37;;
17091;SDS011;8661;45.700;4.880;2023-08-21T06:50:23;6.87;;;4.93;;
17091;SDS011;8661;45.700;4.880;2023-08-21T06:52:50;7.83;;;4.87;;
17091;SDS011;8661;45.700;4.880;2023-08-21T06:55:17;6.30;;;4.90;;
17091;SDS011;8661;45.700;4.880;2023-08-21T06:57:44;5.57;;;4.83;;
17091;SDS011;8661;45.700;4.880;2023-08-21T07:00:12;10.27;;;5.17;;
17091;SDS011;8661;45.700;4.880;2023-08-21T07:02:39;7.50;;;5.30;;
17091;SDS011;8661;45.700;4.880;2023-08-21T07:05:06;9.37;;;4.90;;
17091;SDS011;8661;45.700;4.880;2023-08-21T07:07:35;5.57;;;4.77;;
17091;SDS011;8661;45.700;4.880;2023-08-21T07:10:02;9.82;;;5.88;;
17091;SDS011;8661;45.700;4.880;2023-08-21T07:12:29;9.83;;;7.70;;
17091;SDS011;8661;45.700;4.880;2023-08-21T07:14:56;12.10;;;6.37;;
17091;SDS011;8661;45.700;4.880;2023-08-21T07:17:23;9.40;;;6.20;;
17091;SDS011;8661;45.700;4.880;2023-08-21T07:19:50;6.97;;;5.90;;
17091;SDS011;8661;45.700;4.880;2023-08-21T07:22:20;9.20;;;5.27;;
17091;SDS011;8661;45.700;4.880;2023-08-21T07:24:48;6.57;;;4.53;;
17091;SDS011;8661;45.700;4.880;2023-08-21T07:27:15;11.82;;;4.78;;
17091;SDS011;8661;45.700;4.880;2023-08-21T07:29:41;6.97;;;4.95;;
17091;SDS011;8661;45.700;4.880;2023-08-21T07:32:08;6.90;;;4.85;;
17091;SDS011;8661;45.700;4.880;2023-08-21T07:34:35;5.18;;;4.05;;
17091;SDS011;8661;45.700;4.880;2023-08-21T07:37:02;10.02;;;5.30;;
17091;SDS011;8661;45.700;4.880;2023-08-21T07:39:29;6.20;;;4.53;;
17091;SDS011;8661;45.700;4.880;2023-08-21T07:41:57;9.98;;;5.78;;
17091;SDS011;8661;45.700;4.880;2023-08-21T07:44:24;13.27;;;5.88;;
17091;SDS011;8661;45.700;4.880;2023-08-21T07:46:51;6.75;;;4.70;;
17091;SDS011;8661;45.700;4.880;2023-08-21T07:49:18;11.57;;;5.40;;
17091;SDS011;8661;45.700;4.880;2023-08-21T07:51:45;9.52;;;4.93;;
17091;SDS011;8661;45.700;4.880;2023-08-21T07:54:12;6.57;;;4.13;;
17091;SDS011;8661;45.700;4.880;2023-08-21T07:56:39;6.80;;;4.35;;
17091;SDS011;8661;45.700;4.880;2023-08-21T07:59:07;11.05;;;4.93;;
17091;SDS011;8661;45.700;4.880;2023-08-21T08:01:34;7.75;;;4.50;;
17091;SDS011;8661;45.700;4.880;2023-08-21T08:04:01;6.88;;;4.72;;
17091;SDS011;8661;45.700;4.880;2023-08-21T08:06:28;6.65;;;5.53;;
17091;SDS011;8661;45.700;4.880;2023-08-21T08:08:54;6.32;;;5.40;;
17091;SDS011;8661;45.700;4.880;2023-08-21T08:11:21;5.55;;;4.47;;
17091;SDS011;8661;45.700;4.880;2023-08-21T08:13:48;7.53;;;5.30;;
17091;SDS011;8661;45.700;4.880;2023-08-21T08:16:16;7.55;;;5.03;;
17091;SDS011;8661;45.700;4.880;2023-08-21T08:18:43;12.77;;;5.63;;
17091;SDS011;8661;45.700;4.880;2023-08-21T08:21:10;6.78;;;4.70;;
17091;SDS011;8661;45.700;4.880;2023-08-21T08:23:37;6.05;;;4.60;;
17091;SDS011;8661;45.700;4.880;2023-08-21T08:26:04;12.45;;;6.00;;
17091;SDS011;8661;45.700;4.880;2023-08-21T08:28:31;9.75;;;5.18;;
17091;SDS011;8661;45.700;4.880;2023-08-21T08:30:57;6.57;;;5.10;;
17091;SDS011;8661;45.700;4.880;2023-08-21T08:33:26;13.45;;;4.63;;
17091;SDS011;8661;45.700;4.880;2023-08-21T08:35:53;6.35;;;4.93;;
17091;SDS011;8661;45.700;4.880;2023-08-21T08:38:20;10.38;;;6.05;;
17091;SDS011;8661;45.700;4.880;2023-08-21T08:40:47;7.80;;;5.40;;
17091;SDS011;8661;45.700;4.880;2023-08-21T08:43:16;8.45;;;5.40;;
17091;SDS011;8661;45.700;4.880;2023-08-21T08:45:44;6.15;;;4.93;;
17091;SDS011;8661;45.700;4.880;2023-08-21T08:48:13;8.93;;;5.15;;
17091;SDS011;8661;45.700;4.880;2023-08-21T08:50:42;10.52;;;5.13;;
17091;SDS011;8661;45.700;4.880;2023-08-21T08:53:10;5.60;;;5.10;;
17091;SDS011;8661;45.700;4.880;2023-08-21T08:55:38;5.85;;;4.57;;
17091;SDS011;8661;45.700;4.880;2023-08-21T08:58:05;4.85;;;4.30;;
17091;SDS011;8661;45.700;4.880;2023-08-21T09:00:32;8.18;;;5.10;;
17091;SDS011;8661;45.700;4.880;2023-08-21T09:02:59;5.68;;;4.35;;
17091;SDS011;8661;45.700;4.880;2023-08-21T09:05:26;6.80;;;4.50;;
17091;SDS011;8661;45.700;4.880;2023-08-21T09:08:03;9.05;;;4.30;;
17091;SDS011;8661;45.700;4.880;2023-08-21T09:10:36;6.15;;;4.47;;
17091;SDS011;8661;45.700;4.880;2023-08-21T09:13:08;6.60;;;4.65;;
17091;SDS011;8661;45.700;4.880;2023-08-21T09:15:38;7.50;;;4.43;;
17091;SDS011;8661;45.700;4.880;2023-08-21T09:18:07;5.07;;;4.57;;
17091;SDS011;8661;45.700;4.880;2023-08-21T09:20:36;5.47;;;4.40;;
17091;SDS011;8661;45.700;4.880;2023-08-21T09:23:04;9.35;;;4.68;;
17091;SDS011;8661;45.700;4.880;2023-08-21T09:25:34;5.47;;;4.47;;
17091;SDS011;8661;45.700;4.880;2023-08-21T09:28:04;7.05;;;5.20;;
17091;SDS011;8661;45.700;4.880;2023-08-21T09:30:43;6.35;;;4.80;;
17091;SDS011;8661;45.700;4.880;2023-08-21T09:33:11;7.07;;;4.38;;
17091;SDS011;8661;45.700;4.880;2023-08-21T09:35:38;9.00;;;5.20;;
17091;SDS011;8661;45.700;4.880;2023-08-21T09:38:08;6.78;;;5.07;;
17091;SDS011;8661;45.700;4.880;2023-08-21T09:40:38;10.73;;;6.22;;
17091;SDS011;8661;45.700;4.880;2023-08-21T09:43:06;6.80;;;5.63;;
17091;SDS011;8661;45.700;4.880;2023-08-21T09:45:35;9.60;;;5.50;;
17091;SDS011;8661;45.700;4.880;2023-08-21T09:48:02;7.80;;;4.78;;
17091;SDS011;8661;45.700;4.880;2023-08-21T09:50:30;8.18;;;5.65;;
17091;SDS011;8661;45.700;4.880;2023-08-21T09:52:58;6.35;;;4.40;;
17091;SDS011;8661;45.700;4.880;2023-08-21T09:55:26;19.17;;;5.10;;
17091;SDS011;8661;45.700;4.880;2023-08-21T09:57:54;8.55;;;4.80;;
17091;SDS011;8661;45.700;4.880;2023-08-21T10:00:26;6.05;;;4.72;;
17091;SDS011;8661;45.700;4.880;2023-08-21T10:02:55;5.63;;;4.80;;
17091;SDS011;8661;45.700;4.880;2023-08-21T10:05:26;8.18;;;4.72;;
17091;SDS011;8661;45.700;4.880;2023-08-21T10:07:55;11.02;;;5.90;;
17091;SDS011;8661;45.700;4.880;2023-08-21T10:10:22;6.63;;;5.07;;
17091;SDS011;8661;45.700;4.880;2023-08-21T10:12:51;7.80;;;4.90;;
17091;SDS011;8661;45.700;4.880;2023-08-21T10:15:18;10.07;;;5.43;;
17091;SDS011;8661;45.700;4.880;2023-08-21T10:17:45;8.00;;;4.72;;
17091;SDS011;8661;45.700;4.880;2023-08-21T10:20:12;10.20;;;5.25;;
17091;SDS011;8661;45.700;4.880;2023-08-21T10:22:47;6.63;;;5.13;;
17091;SDS011;8661;45.700;4.880;2023-08-21T10:25:15;8.50;;;4.80;;
17091;SDS011;8661;45.700;4.880;2023-08-21T10:27:45;16.23;;;5.68;;
17091;SDS011;8661;45.700;4.880;2023-08-21T10:30:14;8.15;;;5.07;;
17091;SDS011;8661;45.700;4.880;2023-08-21T10:32:46;7.75;;;4.63;;
17091;SDS011;8661;45.700;4.880;2023-08-21T10:35:14;7.32;;;4.93;;
17091;SDS011;8661;45.700;4.880;2023-08-21T10:40:34;8.20;;;4.80;;
17091;SDS011;8661;45.700;4.880;2023-08-21T10:43:01;8.20;;;4.38;;
17091;SDS011;8661;45.700;4.880;2023-08-21T10:45:30;6.28;;;4.25;;
17091;SDS011;8661;45.700;4.880;2023-08-21T10:47:57;6.95;;;4.13;;
17091;SDS011;8661;45.700;4.880;2023-08-21T10:50:25;7.38;;;4.03;;
17091;SDS011;8661;45.700;4.880;2023-08-21T10:52:52;7.45;;;4.43;;
17091;SDS011;8661;45.700;4.880;2023-08-21T10:55:19;6.15;;;4.47;;
17091;SDS011;8661;45.700;4.880;2023-08-21T10:57:47;7.40;;;4.07;;
17091;SDS011;8661;45.700;4.880;2023-08-21T11:00:15;9.07;;;4.10;;
17091;SDS011;8661;45.700;4.880;2023-08-21T11:02:45;6.20;;;3.95;;
17091;SDS011;8661;45.700;4.880;2023-08-21T11:05:13;9.05;;;4.20;;
17091;SDS011;8661;45.700;4.880;2023-08-21T11:07:42;4.28;;;3.88;;
17091;SDS011;8661;45.700;4.880;2023-08-21T11:10:10;7.68;;;4.60;;
17091;SDS011;8661;45.700;4.880;2023-08-21T11:12:38;6.65;;;4.65;;
17091;SDS011;8661;45.700;4.880;2023-08-21T11:15:15;6.00;;;3.97;;
17091;SDS011;8661;45.700;4.880;2023-08-21T11:17:43;6.10;;;3.90;;
17091;SDS011;8661;45.700;4.880;2023-08-21T11:20:19;6.20;;;3.78;;
17091;SDS011;8661;45.700;4.880;2023-08-21T11:22:46;8.80;;;4.03;;
17091;SDS011;8661;45.700;4.880;2023-08-21T11:25:14;5.88;;;3.80;;
17091;SDS011;8661;45.700;4.880;2023-08-21T11:27:41;11.10;;;4.07;;
17091;SDS011;8661;45.700;4.880;2023-08-21T11:30:10;8.70;;;4.70;;
17091;SDS011;8661;45.700;4.880;2023-08-21T11:32:38;4.50;;;3.88;;
17091;SDS011;8661;45.700;4.880;2023-08-21T11:35:06;6.70;;;3.90;;
17091;SDS011;8661;45.700;4.880;2023-08-21T11:37:34;5.40;;;3.92;;
17091;SDS011;8661;45.700;4.880;2023-08-21T11:40:06;6.43;;;4.07;;
17091;SDS011;8661;45.700;4.880;2023-08-21T11:42:34;5.80;;;4.10;;
17091;SDS011;8661;45.700;4.880;2023-08-21T11:45:01;6.50;;;4.75;;
17091;SDS011;8661;45.700;4.880;2023-08-21T11:47:30;4.72;;;3.80;;
17091;SDS011;8661;45.700;4.880;2023-08-21T11:50:01;5.03;;;3.45;;
17091;SDS011;8661;45.700;4.880;2023-08-21T11:52:30;4.97;;;3.67;;
17091;SDS011;8661;45.700;4.880;2023-08-21T11:54:57;6.88;;;4.07;;
17091;SDS011;8661;45.700;4.880;2023-08-21T11:57:24;5.95;;;4.10;;
17091;SDS011;8661;45.700;4.880;2023-08-21T11:59:53;8.95;;;4.40;;
17091;SDS011;8661;45.700;4.880;2023-08-21T12:02:22;5.60;;;4.18;;
17091;SDS011;8661;45.700;4.880;2023-08-21T12:04:53;7.13;;;4.00;;
17091;SDS011;8661;45.700;4.880;2023-08-21T12:07:20;8.98;;;3.90;;
17091;SDS011;8661;45.700;4.880;2023-08-21T12:09:48;6.03;;;3.95;;
17091;SDS011;8661;45.700;4.880;2023-08-21T12:12:15;7.88;;;3.80;;
17091;SDS011;8661;45.700;4.880;2023-08-21T12:14:42;8.27;;;3.90;;
17091;SDS011;8661;45.700;4.880;2023-08-21T12:17:09;7.32;;;3.80;;
17091;SDS011;8661;45.700;4.880;2023-08-21T12:19:36;4.40;;;3.40;;
17091;SDS011;8661;45.700;4.880;2023-08-21T12:22:03;5.60;;;3.67;;
17091;SDS011;8661;45.700;4.880;2023-08-21T12:24:30;4.70;;;3.63;;
17091;SDS011;8661;45.700;4.880;2023-08-21T12:26:59;6.07;;;3.90;;
17091;SDS011;8661;45.700;4.880;2023-08-21T12:29:26;4.10;;;3.70;;
17091;SDS011;8661;45.700;4.880;2023-08-21T12:31:53;10.02;;;3.38;;
17091;SDS011;8661;45.700;4.880;2023-08-21T12:34:20;3.45;;;3.15;;
17091;SDS011;8661;45.700;4.880;2023-08-21T12:36:46;3.60;;;3.22;;
17091;SDS011;8661;45.700;4.880;2023-08-21T12:39:16;4.60;;;3.50;;
17091;SDS011;8661;45.700;4.880;2023-08-21T12:41:43;4.53;;;3.20;;
17091;SDS011;8661;45.700;4.880;2023-08-21T12:44:11;9.30;;;3.60;;
17091;SDS011;8661;45.700;4.880;2023-08-21T12:46:38;5.53;;;3.50;;
17091;SDS011;8661;45.700;4.880;2023-08-21T12:49:05;6.50;;;3.55;;
17091;SDS011;8661;45.700;4.880;2023-08-21T12:51:32;5.80;;;3.45;;
17091;SDS011;8661;45.700;4.880;2023-08-21T12:53:59;5.38;;;3.78;;
17091;SDS011;8661;45.700;4.880;2023-08-21T12:56:26;9.20;;;4.10;;
17091;SDS011;8661;45.700;4.880;2023-08-21T12:58:53;4.68;;;3.60;;
17091;SDS011;8661;45.700;4.880;2023-08-21T13:01:21;4.55;;;3.58;;
17091;SDS011;8661;45.700;4.880;2023-08-21T13:03:48;7.30;;;3.50;;
17091;SDS011;8661;45.700;4.880;2023-08-21T13:06:15;5.75;;;3.58;;
17091;SDS011;8661;45.700;4.880;2023-08-21T13:08:42;4.60;;;3.38;;
17091;SDS011;8661;45.700;4.880;2023-08-21T13:11:09;6.45;;;3.15;;
17091;SDS011;8661;45.700;4.880;2023-08-21T13:13:36;5.70;;;3.40;;
17091;SDS011;8661;45.700;4.880;2023-08-21T13:16:03;4.85;;;3.42;;
17091;SDS011;8661;45.700;4.880;2023-08-21T13:18:31;5.30;;;3.38;;
17091;SDS011;8661;45.700;4.880;2023-08-21T13:20:58;4.68;;;3.53;;
17091;SDS011;8661;45.700;4.880;2023-08-21T13:23:25;4.45;;;3.35;;
17091;SDS011;8661;45.700;4.880;2023-08-21T13:25:52;4.38;;;3.20;;
17091;SDS011;8661;45.700;4.880;2023-08-21T13:28:19;4.72;;;3.40;;
17091;SDS011;8661;45.700;4.880;2023-08-21T13:30:45;5.50;;;3.50;;
17091;SDS011;8661;45.700;4.880;2023-08-21T13:33:13;6.25;;;3.40;;
17091;SDS011;8661;45.700;4.880;2023-08-21T13:35:44;5.20;;;3.63;;
17091;SDS011;8661;45.700;4.880;2023-08-21T13:38:11;5.90;;;3.65;;
17091;SDS011;8661;45.700;4.880;2023-08-21T13:40:38;4.95;;;3.53;;
17091;SDS011;8661;45.700;4.880;2023-08-21T13:43:06;3.53;;;3.22;;
17091;SDS011;8661;45.700;4.880;2023-08-21T13:45:35;3.83;;;3.38;;
17091;SDS011;8661;45.700;4.880;2023-08-21T13:48:02;3.95;;;3.30;;
17091;SDS011;8661;45.700;4.880;2023-08-21T13:50:30;3.75;;;3.13;;
17091;SDS011;8661;45.700;4.880;2023-08-21T13:52:58;6.43;;;3.83;;
17091;SDS011;8661;45.700;4.880;2023-08-21T13:55:26;3.17;;;2.92;;
17091;SDS011;8661;45.700;4.880;2023-08-21T13:57:52;4.97;;;3.38;;
17091;SDS011;8661;45.700;4.880;2023-08-21T14:00:19;5.55;;;3.65;;
17091;SDS011;8661;45.700;4.880;2023-08-21T14:02:47;6.15;;;3.53;;
17091;SDS011;8661;45.700;4.880;2023-08-21T14:05:14;5.55;;;3.25;;
17091;SDS011;8661;45.700;4.880;2023-08-21T14:07:40;3.53;;;3.22;;
17091;SDS011;8661;45.700;4.880;2023-08-21T14:10:09;9.43;;;3.63;;
17091;SDS011;8661;45.700;4.880;2023-08-21T14:12:36;4.03;;;3.40;;
17091;SDS011;8661;45.700;4.880;2023-08-21T14:15:04;4.93;;;3.30;;
17091;SDS011;8661;45.700;4.880;2023-08-21T14:17:31;4.28;;;3.10;;
17091;SDS011;8661;45.700;4.880;2023-08-21T14:19:58;5.72;;;3.70;;
17091;SDS011;8661;45.700;4.880;2023-08-21T14:22:25;4.60;;;3.35;;
17091;SDS011;8661;45.700;4.880;2023-08-21T14:24:52;4.40;;;3.65;;
17091;SDS011;8661;45.700;4.880;2023-08-21T14:27:20;4.63;;;3.20;;
17091;SDS011;8661;45.700;4.880;2023-08-21T14:29:47;7.38;;;3.67;;
17091;SDS011;8661;45.700;4.880;2023-08-21T14:32:14;4.47;;;3.90;;
17091;SDS011;8661;45.700;4.880;2023-08-21T14:34:41;6.00;;;3.72;;
17091;SDS011;8661;45.700;4.880;2023-08-21T14:37:08;5.57;;;3.72;;
17091;SDS011;8661;45.700;4.880;2023-08-21T14:39:39;6.45;;;3.80;;
17091;SDS011;8661;45.700;4.880;2023-08-21T14:42:06;6.00;;;3.65;;
17091;SDS011;8661;45.700;4.880;2023-08-21T14:44:34;5.32;;;4.07;;
17091;SDS011;8661;45.700;4.880;2023-08-21T14:47:01;5.25;;;3.60;;
17091;SDS011;8661;45.700;4.880;2023-08-21T14:49:28;7.28;;;3.95;;
17091;SDS011;8661;45.700;4.880;2023-08-21T14:51:55;3.35;;;3.05;;
17091;SDS011;8661;45.700;4.880;2023-08-21T14:54:22;5.90;;;3.88;;
17091;SDS011;8661;45.700;4.880;2023-08-21T14:56:49;3.65;;;3.35;;
17091;SDS011;8661;45.700;4.880;2023-08-21T14:59:17;4.20;;;3.20;;
17091;SDS011;8661;45.700;4.880;2023-08-21T15:01:45;3.63;;;3.30;;
17091;SDS011;8661;45.700;4.880;2023-08-21T15:04:12;4.60;;;3.17;;
17091;SDS011;8661;45.700;4.880;2023-08-21T15:06:39;4.38;;;3.35;;